createdAt,value
2019-02-22T00:01:19.976Z,10.03
2019-02-22T00:03:49.094Z,9.97
2019-02-22T00:06:18.215Z,10.05
2019-02-22T00:08:47.342Z,9.98
2019-02-22T00:11:16.464Z,10.04
2019-02-22T00:13:45.601Z,10.01
2019-02-22T00:16:14.715Z,10.10
2019-02-22T00:18:44.105Z,10.19
2019-02-22T00:21:13.226Z,10.10
2019-02-22T00:23:42.354Z,9.95
2019-02-22T00:26:11.477Z,10.05
2019-02-22T00:28:40.619Z,10.02
2019-02-22T00:31:09.989Z,9.98
2019-02-22T00:33:39.119Z,9.90
2019-02-22T00:36:08.540Z,9.93
2019-02-22T00:38:37.901Z,9.98
2019-02-22T00:41:07.029Z,9.89
2019-02-22T00:43:36.215Z,9.91
2019-02-22T00:46:05.337Z,9.85
2019-02-22T00:48:34.456Z,9.85
2019-02-22T00:51:04.646Z,9.88
2019-02-22T00:53:33.767Z,9.92
2019-02-22T00:56:02.899Z,9.85
2019-02-22T00:58:32.016Z,9.75
2019-02-22T01:01:01.140Z,9.85
2019-02-22T01:03:30.527Z,9.83
2019-02-22T01:05:59.909Z,9.76
2019-02-22T01:08:29.030Z,9.67
2019-02-22T01:10:58.150Z,9.66
2019-02-22T01:13:27.602Z,9.61
2019-02-22T01:15:56.845Z,9.69
2019-02-22T01:18:26.214Z,9.66
2019-02-22T01:20:55.335Z,9.61
2019-02-22T01:23:24.455Z,9.56
2019-02-22T01:25:53.589Z,9.54
2019-02-22T01:28:22.706Z,9.53
2019-02-22T01:30:51.831Z,9.48
2019-02-22T01:33:20.977Z,9.55
2019-02-22T01:35:50.092Z,9.48
2019-02-22T01:38:19.248Z,9.36
2019-02-22T01:40:48.699Z,9.37
2019-02-22T01:43:17.813Z,9.42
2019-02-22T01:45:46.958Z,9.43
2019-02-22T01:48:16.386Z,9.45
2019-02-22T01:50:45.526Z,9.46
2019-02-22T01:53:14.647Z,9.51
2019-02-22T01:55:43.777Z,9.46
2019-02-22T01:58:13.178Z,9.43
2019-02-22T02:00:42.304Z,9.49
2019-02-22T02:03:11.432Z,9.46
2019-02-22T02:05:40.558Z,9.53
2019-02-22T02:08:09.691Z,9.55
2019-02-22T02:10:38.824Z,9.54
2019-02-22T02:13:08.277Z,9.51
2019-02-22T02:15:37.399Z,9.46
2019-02-22T02:18:06.534Z,9.46
2019-02-22T02:20:35.655Z,9.35
2019-02-22T02:23:04.791Z,9.43
2019-02-22T02:25:33.920Z,9.52
2019-02-22T02:28:03.063Z,9.50
2019-02-22T02:30:32.191Z,9.38
2019-02-22T02:33:01.325Z,9.38
2019-02-22T02:35:30.813Z,9.47
2019-02-22T02:37:59.932Z,9.55
2019-02-22T02:40:29.365Z,9.51
2019-02-22T02:42:58.488Z,9.54
2019-02-22T02:45:27.975Z,9.42
2019-02-22T02:47:58.070Z,9.38
2019-02-22T02:50:27.440Z,9.34
2019-02-22T02:52:56.904Z,9.34
2019-02-22T02:55:28.623Z,9.29
2019-02-22T02:57:57.753Z,9.33
2019-02-22T03:00:26.885Z,9.33
2019-02-22T03:02:56.010Z,9.48
2019-02-22T03:05:43.385Z,9.24
2019-02-22T03:08:12.567Z,9.23
2019-02-22T03:10:41.697Z,9.31
2019-02-22T03:13:11.073Z,9.38
2019-02-22T03:15:40.196Z,9.37
2019-02-22T03:18:09.324Z,9.32
2019-02-22T03:20:38.455Z,9.24
2019-02-22T03:23:07.860Z,9.21
2019-02-22T03:25:37.026Z,9.16
2019-02-22T03:28:06.123Z,9.24
2019-02-22T03:30:35.254Z,9.31
2019-02-22T03:33:04.368Z,9.23
2019-02-22T03:35:33.491Z,9.26
2019-02-22T03:38:02.621Z,9.21
2019-02-22T03:40:31.743Z,9.18
2019-02-22T03:43:00.869Z,9.20
2019-02-22T03:45:29.993Z,9.18
2019-02-22T03:47:59.152Z,9.09
2019-02-22T03:50:28.255Z,9.07
2019-02-22T03:53:11.191Z,9.05
2019-02-22T03:55:40.322Z,9.04
2019-02-22T03:58:09.442Z,9.07
2019-02-22T04:00:38.570Z,9.08
2019-02-22T04:03:07.691Z,9.13
2019-02-22T04:05:36.827Z,9.10
2019-02-22T04:08:07.217Z,9.09
2019-02-22T04:10:36.565Z,9.16
2019-02-22T04:13:05.687Z,9.16
2019-02-22T04:15:35.071Z,9.24
2019-02-22T04:18:04.615Z,9.27
2019-02-22T04:20:34.080Z,9.23
2019-02-22T04:23:03.201Z,9.23
2019-02-22T04:25:32.342Z,9.23
2019-02-22T04:28:01.921Z,9.20
2019-02-22T04:30:31.097Z,9.21
2019-02-22T04:33:00.227Z,9.25
2019-02-22T04:35:30.318Z,9.24
2019-02-22T04:37:59.442Z,9.27
2019-02-22T04:40:28.568Z,9.35
2019-02-22T04:42:57.922Z,9.32
2019-02-22T04:45:27.090Z,9.29
2019-02-22T04:47:56.448Z,9.29
2019-02-22T04:50:25.575Z,9.25
2019-02-22T04:52:54.699Z,9.20
2019-02-22T04:55:23.825Z,9.26
2019-02-22T04:57:53.942Z,9.29
2019-02-22T05:00:23.044Z,9.25
2019-02-22T05:02:52.166Z,9.34
2019-02-22T05:05:21.471Z,9.39
2019-02-22T05:07:50.588Z,9.40
2019-02-22T05:10:19.703Z,9.46
2019-02-22T05:12:48.822Z,9.48
2019-02-22T05:15:17.938Z,9.53
2019-02-22T05:17:47.068Z,9.50
2019-02-22T05:20:16.196Z,9.46
2019-02-22T05:22:45.330Z,9.51
2019-02-22T05:25:14.692Z,9.48
2019-02-22T05:27:43.866Z,9.50
2019-02-22T05:30:12.988Z,9.50
2019-02-22T05:32:42.119Z,9.41
2019-02-22T05:35:12.218Z,9.28
2019-02-22T05:37:41.361Z,9.20
2019-02-22T05:40:10.486Z,9.19
2019-02-22T05:42:39.611Z,9.25
2019-02-22T05:45:08.737Z,9.11
2019-02-22T05:47:37.862Z,9.14
2019-02-22T05:50:07.047Z,9.09
2019-02-22T05:52:36.127Z,9.06
2019-02-22T05:55:05.778Z,9.19
2019-02-22T05:57:34.901Z,9.25
2019-02-22T06:00:04.771Z,9.30
2019-02-22T06:02:34.238Z,9.23
2019-02-22T06:05:03.470Z,9.28
2019-02-22T06:07:32.600Z,9.27
2019-02-22T06:10:01.805Z,9.26
2019-02-22T06:12:34.881Z,9.24
2019-02-22T06:15:02.733Z,9.23
2019-02-22T06:17:31.852Z,9.33
2019-02-22T06:20:01.270Z,9.28
2019-02-22T06:22:30.382Z,9.35
2019-02-22T06:24:59.767Z,9.38
2019-02-22T06:27:28.891Z,9.44
2019-02-22T06:29:58.361Z,9.38
2019-02-22T06:32:27.480Z,9.43
2019-02-22T06:34:56.653Z,9.41
2019-02-22T06:37:25.776Z,9.36
2019-02-22T06:39:54.893Z,9.27
2019-02-22T06:42:24.040Z,9.33
2019-02-22T06:44:53.391Z,9.25
2019-02-22T06:47:22.962Z,9.34
2019-02-22T06:49:52.198Z,9.42
2019-02-22T06:52:21.320Z,9.40
2019-02-22T06:54:50.438Z,9.49
2019-02-22T06:57:19.574Z,9.49
2019-02-22T06:59:49.983Z,9.54
2019-02-22T07:02:19.104Z,9.57
2019-02-22T07:04:48.225Z,9.63
2019-02-22T07:07:17.350Z,9.57
2019-02-22T07:09:46.471Z,9.56
2019-02-22T07:12:20.285Z,9.58
2019-02-22T07:14:48.765Z,9.56
2019-02-22T07:17:18.054Z,9.58
2019-02-22T07:19:47.177Z,9.68
2019-02-22T07:22:16.306Z,9.68
2019-02-22T07:24:45.420Z,9.61
2019-02-22T07:27:14.851Z,9.65
2019-02-22T07:29:43.979Z,9.68
2019-02-22T07:32:13.089Z,9.65
2019-02-22T07:34:42.212Z,9.67
2019-02-22T07:37:11.657Z,9.70
2019-02-22T07:39:40.781Z,9.69
2019-02-22T07:42:09.905Z,9.77
2019-02-22T07:44:39.034Z,9.69
2019-02-22T07:47:08.155Z,9.66
2019-02-22T07:49:37.279Z,9.72
2019-02-22T07:52:06.412Z,9.78
2019-02-22T07:54:35.530Z,9.88
2019-02-22T07:57:04.655Z,9.90
2019-02-22T07:59:33.782Z,9.96
2019-02-22T08:02:02.904Z,9.93
2019-02-22T08:04:32.030Z,10.04
2019-02-22T08:07:01.154Z,10.01
2019-02-22T08:09:30.281Z,10.00
2019-02-22T08:11:59.409Z,9.98
2019-02-22T08:14:28.547Z,9.99
2019-02-22T08:16:57.670Z,10.06
2019-02-22T08:19:26.794Z,10.00
2019-02-22T08:21:55.920Z,9.98
2019-02-22T08:24:26.043Z,9.93
2019-02-22T08:26:55.526Z,9.98
2019-02-22T08:29:24.641Z,9.91
2019-02-22T08:31:53.771Z,9.96
2019-02-22T08:34:22.911Z,10.08
2019-02-22T08:36:52.034Z,10.04
2019-02-22T08:39:21.158Z,10.10
2019-02-22T08:41:50.530Z,10.15
2019-02-22T08:44:19.656Z,10.27
2019-02-22T08:46:48.788Z,10.18
2019-02-22T08:49:17.907Z,10.26
2019-02-22T08:51:47.066Z,10.30
2019-02-22T08:54:16.158Z,10.28
2019-02-22T08:56:45.278Z,10.29
2019-02-22T08:59:14.400Z,10.28
2019-02-22T09:01:44.543Z,10.25
2019-02-22T09:04:13.735Z,10.32
2019-02-22T09:06:42.864Z,10.36
2019-02-22T09:09:11.984Z,10.25
2019-02-22T09:11:41.184Z,10.28
2019-02-22T09:14:10.308Z,10.30
2019-02-22T09:16:39.435Z,10.31
2019-02-22T09:19:08.618Z,10.27
2019-02-22T09:21:37.752Z,10.33
2019-02-22T09:24:06.883Z,10.39
2019-02-22T09:26:36.018Z,10.41
2019-02-22T09:29:05.508Z,10.50
2019-02-22T09:31:34.640Z,10.57
2019-02-22T09:34:03.765Z,10.50
2019-02-22T09:36:32.909Z,10.58
2019-02-22T09:39:02.111Z,10.60
2019-02-22T09:41:33.145Z,10.69
2019-02-22T09:44:02.285Z,10.68
2019-02-22T09:46:31.394Z,10.64
2019-02-22T09:49:00.520Z,10.54
2019-02-22T09:51:29.776Z,10.65
2019-02-22T09:53:58.903Z,10.70
2019-02-22T09:56:28.039Z,10.82
2019-02-22T09:58:57.161Z,11.02
2019-02-22T10:01:26.339Z,11.32
2019-02-22T10:03:55.469Z,11.50
2019-02-22T10:06:24.600Z,11.56
2019-02-22T10:08:53.726Z,11.75
2019-02-22T10:11:22.872Z,11.87
2019-02-22T10:13:51.991Z,11.76
2019-02-22T10:16:21.220Z,11.47
2019-02-22T10:18:50.347Z,11.69
2019-02-22T10:21:19.713Z,11.47
2019-02-22T10:23:48.843Z,11.57
2019-02-22T10:26:17.966Z,11.51
2019-02-22T10:28:47.095Z,11.49
2019-02-22T10:31:16.214Z,11.44
2019-02-22T10:33:45.345Z,11.43
2019-02-22T10:36:14.708Z,11.63
2019-02-22T10:38:43.848Z,11.71
2019-02-22T10:41:12.972Z,11.69
2019-02-22T10:43:42.141Z,11.74
2019-02-22T10:46:12.235Z,11.71
2019-02-22T10:48:41.427Z,11.66
2019-02-22T10:51:11.524Z,11.75
2019-02-22T10:53:40.655Z,11.81
2019-02-22T10:56:09.847Z,11.97
2019-02-22T10:58:38.968Z,12.00
2019-02-22T11:01:08.147Z,12.00
2019-02-22T11:03:37.278Z,12.14
2019-02-22T11:06:06.404Z,12.20
2019-02-22T11:08:35.527Z,12.13
2019-02-22T11:11:04.673Z,11.84
2019-02-22T11:13:34.856Z,11.89
2019-02-22T11:16:04.056Z,12.01
2019-02-22T11:18:34.146Z,12.18
2019-02-22T11:21:03.381Z,11.95
2019-02-22T11:23:32.491Z,11.93
2019-02-22T11:26:01.622Z,11.88
2019-02-22T11:28:30.743Z,11.87
2019-02-22T11:30:59.876Z,12.03
2019-02-22T11:33:29.048Z,12.19
2019-02-22T11:35:58.183Z,12.17
2019-02-22T11:38:27.307Z,12.28
2019-02-22T11:40:56.674Z,12.25
2019-02-22T11:43:25.806Z,12.26
2019-02-22T11:45:54.975Z,12.47
2019-02-22T11:48:24.147Z,12.59
2019-02-22T11:50:53.640Z,12.54
2019-02-22T11:53:22.764Z,12.55
2019-02-22T11:55:51.894Z,12.46
2019-02-22T11:58:21.086Z,12.45
2019-02-22T12:00:50.211Z,12.56
2019-02-22T12:03:24.802Z,12.49
2019-02-22T12:05:50.171Z,12.67
2019-02-22T12:08:19.306Z,12.74
2019-02-22T12:10:48.421Z,12.71
2019-02-22T12:13:18.620Z,12.92
2019-02-22T12:15:47.914Z,12.99
2019-02-22T12:18:17.274Z,13.10
2019-02-22T12:20:46.394Z,13.10
2019-02-22T12:23:15.599Z,13.21
2019-02-22T12:25:44.768Z,13.60
2019-02-22T12:28:13.895Z,14.15
2019-02-22T12:30:43.020Z,15.32
2019-02-22T12:33:12.472Z,17.70
2019-02-22T12:35:41.872Z,19.83
2019-02-22T12:38:10.997Z,20.74
2019-02-22T12:40:40.114Z,20.26
2019-02-22T12:43:09.253Z,19.44
2019-02-22T12:45:38.381Z,18.34
2019-02-22T12:48:07.763Z,17.91
2019-02-22T12:50:36.875Z,17.50
2019-02-22T12:53:06.002Z,16.82
2019-02-22T12:55:35.124Z,16.35
2019-02-22T12:58:04.279Z,16.28
2019-02-22T13:00:33.400Z,16.21
2019-02-22T13:03:02.696Z,16.11
2019-02-22T13:05:31.856Z,15.89
2019-02-22T13:08:01.057Z,15.89
2019-02-22T13:10:30.176Z,15.88
2019-02-22T13:13:00.414Z,15.43
2019-02-22T13:15:29.541Z,15.82
2019-02-22T13:17:58.687Z,16.35
2019-02-22T13:20:27.881Z,17.40
2019-02-22T13:22:57.036Z,19.51
2019-02-22T13:25:26.161Z,21.39
2019-02-22T13:27:55.338Z,24.00
2019-02-22T13:30:24.510Z,25.63
2019-02-22T13:32:53.854Z,27.29
2019-02-22T13:35:23.081Z,28.27
2019-02-22T13:37:52.191Z,29.60
2019-02-22T13:40:21.385Z,29.68
2019-02-22T13:42:50.496Z,31.25
2019-02-22T13:45:26.752Z,31.69
2019-02-22T13:47:50.791Z,32.36
2019-02-22T13:50:19.904Z,32.16
2019-02-22T13:52:49.085Z,30.69
2019-02-22T13:55:18.317Z,28.75
2019-02-22T13:57:47.455Z,26.39
2019-02-22T14:00:20.295Z,25.73
2019-02-22T14:02:49.406Z,26.23
2019-02-22T14:05:19.312Z,27.39
2019-02-22T14:07:56.334Z,27.15
2019-02-22T14:10:26.558Z,27.59
2019-02-22T14:12:55.678Z,27.23
2019-02-22T14:15:24.827Z,26.06
2019-02-22T14:17:54.008Z,25.11
2019-02-22T14:20:23.139Z,23.82
2019-02-22T14:22:52.578Z,22.12
2019-02-22T14:25:21.700Z,21.88
2019-02-22T14:27:51.295Z,21.23
2019-02-22T14:30:20.694Z,20.34
2019-02-22T14:32:49.804Z,20.21
2019-02-22T14:35:19.193Z,20.53
2019-02-22T14:37:48.433Z,20.39
2019-02-22T14:40:17.515Z,20.97
2019-02-22T14:42:46.673Z,20.36
2019-02-22T14:45:15.744Z,20.08
2019-02-22T14:47:44.860Z,19.46
2019-02-22T14:50:15.921Z,18.87
2019-02-22T14:52:45.031Z,18.89
2019-02-22T14:55:15.133Z,18.50
2019-02-22T14:57:45.335Z,18.13
2019-02-22T15:00:17.954Z,17.81
2019-02-22T15:02:47.252Z,17.62
2019-02-22T15:05:16.469Z,17.59
2019-02-22T15:07:45.832Z,17.36
2019-02-22T15:10:14.958Z,17.01
2019-02-22T15:12:44.087Z,16.89
2019-02-22T15:15:15.912Z,16.74
2019-02-22T15:17:46.680Z,16.61
2019-02-22T15:20:15.802Z,16.38
2019-02-22T15:22:45.935Z,16.17
2019-02-22T15:25:16.328Z,16.23
2019-02-22T15:27:45.688Z,16.30
2019-02-22T15:30:16.109Z,16.32
2019-02-22T15:32:45.265Z,16.25
2019-02-22T15:35:16.588Z,16.15
2019-02-22T15:37:45.714Z,16.11
2019-02-22T15:40:15.302Z,16.12
2019-02-22T15:42:44.380Z,16.25
2019-02-22T15:45:15.899Z,16.27
2019-02-22T15:47:45.106Z,16.15
2019-02-22T15:50:15.270Z,16.14
2019-02-22T15:52:45.038Z,16.08
2019-02-22T15:55:14.558Z,15.98
2019-02-22T15:57:43.694Z,15.76
2019-02-22T16:00:30.523Z,15.67
2019-02-22T16:02:59.732Z,15.62
2019-02-22T16:05:42.434Z,15.47
2019-02-22T16:08:11.563Z,15.58
2019-02-22T16:10:40.688Z,15.80
2019-02-22T16:13:09.883Z,15.76
2019-02-22T16:15:40.678Z,15.56
2019-02-22T16:18:09.914Z,15.43
2019-02-22T16:20:39.034Z,15.31
2019-02-22T16:23:08.172Z,15.24
2019-02-22T16:25:37.302Z,15.21
2019-02-22T16:28:06.428Z,15.13
2019-02-22T16:30:36.599Z,15.06
2019-02-22T16:33:05.731Z,14.96
2019-02-22T16:35:34.857Z,14.90
2019-02-22T16:38:04.188Z,14.67
2019-02-22T16:40:34.385Z,14.58
2019-02-22T16:43:03.839Z,14.48
2019-02-22T16:45:32.971Z,14.38
2019-02-22T16:48:02.099Z,14.27
2019-02-22T16:50:31.223Z,14.21
2019-02-22T16:53:00.413Z,14.09
2019-02-22T16:55:29.541Z,13.96
2019-02-22T16:57:58.671Z,13.85
2019-02-22T17:00:27.799Z,13.79
2019-02-22T17:02:58.499Z,13.75
2019-02-22T17:05:27.628Z,13.69
2019-02-22T17:07:56.990Z,13.66
2019-02-22T17:10:26.123Z,13.63
2019-02-22T17:12:55.268Z,13.40
2019-02-22T17:15:24.652Z,13.36
2019-02-22T17:17:53.780Z,13.23
2019-02-22T17:20:22.906Z,13.20
2019-02-22T17:22:52.030Z,13.10
2019-02-22T17:25:22.016Z,13.01
2019-02-22T17:27:51.138Z,12.94
2019-02-22T17:30:21.309Z,12.86
2019-02-22T17:32:50.656Z,12.80
2019-02-22T17:35:19.781Z,12.75
2019-02-22T17:37:48.924Z,12.72
2019-02-22T17:40:32.344Z,12.79
2019-02-22T17:43:01.548Z,12.87
2019-02-22T17:45:30.663Z,12.94
2019-02-22T17:47:59.785Z,13.02
2019-02-22T17:50:29.209Z,13.05
2019-02-22T17:52:58.612Z,13.08
2019-02-22T17:55:27.769Z,13.05
2019-02-22T17:57:56.890Z,13.08
2019-02-22T18:00:26.652Z,13.12
2019-02-22T18:02:55.776Z,13.12
2019-02-22T18:05:24.907Z,13.12
2019-02-22T18:07:54.030Z,13.01
2019-02-22T18:10:23.190Z,13.06
2019-02-22T18:12:52.315Z,12.99
2019-02-22T18:15:21.707Z,13.02
2019-02-22T18:17:50.833Z,13.01
2019-02-22T18:20:19.967Z,12.92
2019-02-22T18:22:49.093Z,12.91
2019-02-22T18:25:18.234Z,12.92
2019-02-22T18:27:47.364Z,12.90
2019-02-22T18:30:24.508Z,12.91
2019-02-22T18:32:53.883Z,12.72
2019-02-22T18:35:23.296Z,12.74
2019-02-22T18:37:52.424Z,12.64
2019-02-22T18:40:22.859Z,12.62
2019-02-22T18:42:51.964Z,12.50
2019-02-22T18:45:21.086Z,12.44
2019-02-22T18:47:50.209Z,12.38
2019-02-22T18:50:19.340Z,12.38
2019-02-22T18:52:49.538Z,12.21
2019-02-22T18:55:18.658Z,12.15
2019-02-22T18:57:47.778Z,12.10
2019-02-22T19:00:21.126Z,12.02
2019-02-22T19:02:50.263Z,11.90
2019-02-22T19:05:19.430Z,11.87
2019-02-22T19:07:48.559Z,11.77
2019-02-22T19:10:18.621Z,11.72
2019-02-22T19:12:48.033Z,11.62
2019-02-22T19:15:17.239Z,11.54
2019-02-22T19:17:46.356Z,11.47
2019-02-22T19:20:20.160Z,11.38
2019-02-22T19:22:48.638Z,11.29
2019-02-22T19:25:17.729Z,11.18
2019-02-22T19:27:46.895Z,11.17
2019-02-22T19:30:17.722Z,11.12
2019-02-22T19:32:46.923Z,11.02
2019-02-22T19:35:16.047Z,10.95
2019-02-22T19:37:45.187Z,10.86
2019-02-22T19:40:16.847Z,10.81
2019-02-22T19:42:46.025Z,10.72
2019-02-22T19:45:15.150Z,10.64
2019-02-22T19:47:44.288Z,10.54
2019-02-22T19:50:14.456Z,10.47
2019-02-22T19:52:43.597Z,10.40
2019-02-22T19:55:17.334Z,10.32
2019-02-22T19:57:45.809Z,10.27
2019-02-22T20:00:16.797Z,10.20
2019-02-22T20:02:46.195Z,10.25
2019-02-22T20:05:16.162Z,10.26
2019-02-22T20:07:45.351Z,10.28
2019-02-22T20:10:18.526Z,10.23
2019-02-22T20:12:47.828Z,10.29
2019-02-22T20:15:17.769Z,10.32
2019-02-22T20:17:53.732Z,10.36
2019-02-22T20:20:18.707Z,10.38
2019-02-22T20:22:48.902Z,10.35
2019-02-22T20:25:18.034Z,10.33
2019-02-22T20:27:47.168Z,10.24
2019-02-22T20:30:19.578Z,10.29
2019-02-22T20:32:48.771Z,10.33
2019-02-22T20:35:28.756Z,10.37
2019-02-22T20:37:58.050Z,10.29
2019-02-22T20:40:27.180Z,10.29
2019-02-22T20:42:56.303Z,10.28
2019-02-22T20:45:25.435Z,10.25
2019-02-22T20:48:04.633Z,10.18
2019-02-22T20:50:25.693Z,10.18
2019-02-22T20:52:54.826Z,10.13
2019-02-22T20:55:24.196Z,10.11
2019-02-22T20:57:53.306Z,10.06
2019-02-22T21:00:24.468Z,9.97
2019-02-22T21:02:53.658Z,9.98
2019-02-22T21:05:23.754Z,10.05
2019-02-22T21:07:52.978Z,10.03
2019-02-22T21:10:22.880Z,9.98
2019-02-22T21:12:51.999Z,9.92
2019-02-22T21:15:21.201Z,9.84
2019-02-22T21:17:50.324Z,9.95
2019-02-22T21:20:20.800Z,9.92
2019-02-22T21:22:50.022Z,9.90
2019-02-22T21:25:19.331Z,9.88
2019-02-22T21:27:48.451Z,9.84
2019-02-22T21:30:18.612Z,9.85
2019-02-22T21:32:47.735Z,9.82
2019-02-22T21:35:16.855Z,9.78
2019-02-22T21:37:45.987Z,9.76
2019-02-22T21:40:15.126Z,9.68
2019-02-22T21:42:44.315Z,9.74
2019-02-22T21:45:14.628Z,9.68
2019-02-22T21:47:54.098Z,9.64
2019-02-22T21:50:15.610Z,9.53
2019-02-22T21:52:44.729Z,9.49
2019-02-22T21:55:14.585Z,9.44
2019-02-22T21:57:44.127Z,9.45
2019-02-22T22:00:23.947Z,9.45
2019-02-22T22:02:53.348Z,9.47
2019-02-22T22:05:22.475Z,9.45
2019-02-22T22:07:51.588Z,9.41
2019-02-22T22:10:20.708Z,9.33
2019-02-22T22:12:49.839Z,9.30
2019-02-22T22:15:18.950Z,9.30
2019-02-22T22:17:48.073Z,9.24
2019-02-22T22:20:17.185Z,9.18
2019-02-22T22:22:46.551Z,9.13
2019-02-22T22:25:16.241Z,9.06
2019-02-22T22:27:45.367Z,9.03
2019-02-22T22:30:15.226Z,9.00
2019-02-22T22:32:44.350Z,8.92
2019-02-22T22:35:15.668Z,8.92
2019-02-22T22:37:45.023Z,8.83
2019-02-22T22:40:14.141Z,8.83
2019-02-22T22:42:43.256Z,8.81
2019-02-22T22:45:15.079Z,8.80
2019-02-22T22:47:44.218Z,8.79
2019-02-22T22:50:14.372Z,8.73
2019-02-22T22:52:43.494Z,8.76
2019-02-22T22:55:13.580Z,8.64
2019-02-22T22:57:42.705Z,8.60
2019-02-22T23:00:35.612Z,8.61
2019-02-22T23:03:06.490Z,8.56
2019-02-22T23:05:36.017Z,8.60
2019-02-22T23:08:05.165Z,8.61
2019-02-22T23:10:35.478Z,8.54
2019-02-22T23:13:04.671Z,8.55
2019-02-22T23:15:33.785Z,8.51
2019-02-22T23:18:02.906Z,8.44
2019-02-22T23:20:32.026Z,8.44
2019-02-22T23:23:01.154Z,8.41
2019-02-22T23:25:30.261Z,8.44
2019-02-22T23:27:59.379Z,8.37
2019-02-22T23:30:28.732Z,8.38
2019-02-22T23:32:57.849Z,8.35
2019-02-22T23:35:26.970Z,8.31
2019-02-22T23:37:56.329Z,8.23
2019-02-22T23:40:25.454Z,8.27
2019-02-22T23:42:54.582Z,8.26
2019-02-22T23:45:23.937Z,8.23
2019-02-22T23:47:53.293Z,8.19
2019-02-22T23:50:22.418Z,8.13
2019-02-22T23:52:52.544Z,8.16
2019-02-22T23:55:21.670Z,8.18
2019-02-22T23:57:50.786Z,8.08
